Flight Track Log - Related Links

Times and Time Zones

All times are in EDT time to prevent confusion due to time zone crossing. See the EJM916 flight status page for this flight to view local times or setup timezone preferences in your user account.

Time Position Orientation Groundspeed Altitude Reporting Facility
EDT Latitude Longitude Course Direction KTS MPH feet Rate Location/Type
Mon 02:35:30 PM 34.9078 -78.9300 203° Southwest 212 244 5,700  Level Washington Center
Mon 02:36:28 PM 34.8422 -78.9578 199° South 255 293 9,400 3,378 Climbing Washington Center
Mon 02:37:29 PM 34.7514 -78.9944 198° South 303 349 12,400 2,357 Climbing Washington Center
Mon 02:39:16 PM 34.5767 -79.0447 193° South 372 428 16,000 1,257 Climbing Jacksonville Center
Mon 02:40:16 PM 34.4714 -79.0769 194° South 386 444 15,900 -50 Descending Jacksonville Center
Mon 02:41:16 PM 34.3636 -79.1019 191° South 397 457 15,900  Level Jacksonville Center
Mon 02:42:16 PM 34.2539 -79.1269 191° South 402 463 15,900  Level Jacksonville Center
Mon 02:43:16 PM 34.1442 -79.1542 192° South 402 463 15,900  Level Jacksonville Center
Mon 02:44:16 PM 34.0342 -79.1814 192° South 402 463 15,900  Level Jacksonville Center
Mon 02:45:16 PM 33.9264 -79.2058 191° South 407 468 15,900  Level Jacksonville Center
Mon 02:47:16 PM 33.7183 -79.2897 199° South 399 459 15,900 -267 Level Jacksonville Center
Mon 02:48:16 PM 33.6303 -79.3556 212° Southwest 387 445 15,100 -1,100 Descending Jacksonville Center
Mon 02:49:16 PM 33.5406 -79.4239 212° Southwest 387 445 13,700 -1,350 Descending Jacksonville Center
Mon 02:50:16 PM 33.4525 -79.4894 212° Southwest 387 445 12,400 -1,300 Descending Jacksonville Center
Mon 02:51:16 PM 33.3667 -79.5575 214° Southwest 381 438 11,100 -1,100 Descending Jacksonville Center
Mon 02:52:16 PM 33.3019 -79.6394 227° Southwest 371 427 10,200 -1,150 Descending Jacksonville Center
Mon 02:53:16 PM 33.2475 -79.7111 228° Southwest 328 377 8,800 -1,450 Descending Jacksonville Center
Mon 02:54:16 PM 33.1992 -79.7797 230° Southwest 297 342 7,300 -1,800 Descending Jacksonville Center
Mon 02:55:16 PM 33.1506 -79.8483 230° Southwest 284 327 5,200 -1,800 Descending Jacksonville Center
Mon 02:56:16 PM 33.1022 -79.9169 230° Southwest 269 310 3,700 -1,500 Descending Jacksonville Center
Mon 02:57:16 PM 33.0447 -79.9611 213° Southwest 255 293 2,200 -1,050 Descending Jacksonville Center
Mon 02:58:16 PM 32.9911 -79.9900 204° Southwest 234 269 1,600 -650 Descending Jacksonville Center
Mon 02:59:16 PM 32.9500 -80.0136 206° Southwest 200 230 900 -700 Descending Jacksonville Center
Mon 03:01:00 PM 32.8986 -80.0405 203° Southwest  Level Estimated
Mon 03:08:00 PM 32.8986 -80.0405 203° Southwest  Level Estimated

Login

Don't have an account? Register now (free) for customized features, flight alerts, and more!